Time,TemperatureF,DewpointF,PressureIn,WindDirection,WindDirectionDegrees,WindSpeedMPH,WindSpeedGustMPH,Humidity,HourlyPrecipIn,Conditions,Clouds,dailyrainin,SolarRadiationWatts/m^2,SoftwareType,DateUTC
2013-03-07 00:21:00,27.0,8.0,-100.00,East,95,4.0,8.0,43,0.00,,,0.00,0.000000,,2013-03-07 07:21:00,
2013-03-07 00:32:00,27.0,8.0,-100.00,East,95,4.0,8.0,43,0.00,,,0.00,0.000000,,2013-03-07 07:32:00,
2013-03-07 00:42:00,27.0,8.0,-100.00,East,95,4.0,8.0,43,0.00,,,0.00,0.000000,,2013-03-07 07:42:00,
2013-03-07 00:52:00,27.0,8.0,-100.00,East,95,4.0,8.0,43,0.00,,,0.00,0.000000,,2013-03-07 07:52:00,
2013-03-07 01:23:00,26.0,9.0,-100.00,East,94,5.0,8.0,47,0.00,,,0.00,0.000000,,2013-03-07 08:23:00,
2013-03-07 01:33:00,26.0,9.0,-100.00,East,94,5.0,8.0,47,0.00,,,0.00,0.000000,,2013-03-07 08:33:00,
2013-03-07 01:43:00,26.0,9.0,-100.00,East,94,5.0,8.0,47,0.00,,,0.00,0.000000,,2013-03-07 08:43:00,
2013-03-07 01:53:00,26.0,9.0,-100.00,East,94,5.0,8.0,47,0.00,,,0.00,0.000000,,2013-03-07 08:53:00,
2013-03-07 02:23:00,26.0,9.0,-100.00,East,82,6.0,9.0,48,0.00,,,0.00,0.000000,,2013-03-07 09:23:00,
2013-03-07 02:33:00,26.0,9.0,-100.00,East,82,6.0,9.0,48,0.00,,,0.00,0.000000,,2013-03-07 09:33:00,
2013-03-07 02:42:00,26.0,9.0,-100.00,East,82,6.0,9.0,48,0.00,,,0.00,0.000000,,2013-03-07 09:42:00,
2013-03-07 02:52:00,26.0,9.0,-100.00,East,82,6.0,9.0,48,0.00,,,0.00,0.000000,,2013-03-07 09:52:00,
2013-03-07 03:23:00,26.0,9.0,-100.00,ESE,107,2.0,12.0,47,0.00,,,0.00,0.000000,,2013-03-07 10:23:00,
2013-03-07 03:33:00,26.0,9.0,-100.00,ESE,107,2.0,12.0,47,0.00,,,0.00,0.000000,,2013-03-07 10:33:00,
2013-03-07 03:42:00,26.0,9.0,-100.00,ESE,107,2.0,12.0,47,0.00,,,0.00,0.000000,,2013-03-07 10:42:00,
2013-03-07 03:52:00,26.0,9.0,-100.00,ESE,107,2.0,12.0,47,0.00,,,0.00,0.000000,,2013-03-07 10:52:00,
2013-03-07 05:23:00,28.0,8.0,-100.00,East,89,3.0,11.0,43,-99.99,,,0.00,0.000000,,2013-03-07 12:23:00,
2013-03-07 05:33:00,28.0,8.0,-100.00,East,89,3.0,11.0,43,-99.99,,,0.00,0.000000,,2013-03-07 12:33:00,
2013-03-07 05:42:00,28.0,8.0,-100.00,East,89,3.0,11.0,43,-99.99,,,0.00,0.000000,,2013-03-07 12:42:00,
2013-03-07 05:52:00,28.0,8.0,-100.00,East,89,3.0,11.0,43,-99.99,,,0.00,0.000000,,2013-03-07 12:52:00,
2013-03-07 06:22:00,27.0,6.0,-100.00,NNE,22,4.0,11.0,40,0.00,,,0.00,0.000000,,2013-03-07 13:22:00,
2013-03-07 06:32:00,27.0,6.0,-100.00,NNE,22,4.0,11.0,40,0.00,,,0.00,0.000000,,2013-03-07 13:32:00,
2013-03-07 06:42:00,27.0,6.0,-100.00,NNE,22,4.0,11.0,40,0.00,,,0.00,0.000000,,2013-03-07 13:42:00,
2013-03-07 06:52:00,27.0,6.0,-100.00,NNE,22,4.0,11.0,40,0.00,,,0.00,0.000000,,2013-03-07 13:52:00,
2013-03-07 07:23:00,25.0,5.0,-100.00,NE,52,6.0,12.0,42,0.00,,,0.00,6.000000,,2013-03-07 14:23:00,
2013-03-07 07:33:00,25.0,5.0,-100.00,NE,52,6.0,12.0,42,0.00,,,0.00,6.000000,,2013-03-07 14:33:00,
2013-03-07 07:42:00,25.0,5.0,-100.00,NE,52,6.0,12.0,42,0.00,,,0.00,6.000000,,2013-03-07 14:42:00,
2013-03-07 07:53:00,25.0,5.0,-100.00,NE,52,6.0,12.0,42,0.00,,,0.00,6.000000,,2013-03-07 14:53:00,
2013-03-07 08:23:00,31.0,7.0,-100.00,NE,51,5.0,14.0,36,0.00,,,0.00,55.000000,,2013-03-07 15:23:00,
2013-03-07 08:32:00,31.0,7.0,-100.00,NE,51,5.0,14.0,36,0.00,,,0.00,55.000000,,2013-03-07 15:32:00,
2013-03-07 08:42:00,31.0,7.0,-100.00,NE,51,5.0,14.0,36,0.00,,,0.00,55.000000,,2013-03-07 15:42:00,
2013-03-07 08:52:00,31.0,7.0,-100.00,NE,51,5.0,14.0,36,0.00,,,0.00,55.000000,,2013-03-07 15:52:00,
2013-03-07 09:23:00,42.0,4.0,-100.00,ESE,113,5.0,10.0,20,0.00,,,0.00,364.000000,,2013-03-07 16:23:00,
2013-03-07 09:32:00,42.0,4.0,-100.00,ESE,113,5.0,10.0,20,0.00,,,0.00,364.000000,,2013-03-07 16:32:00,
2013-03-07 09:43:00,42.0,4.0,-100.00,ESE,113,5.0,10.0,20,0.00,,,0.00,364.000000,,2013-03-07 16:43:00,
2013-03-07 09:52:00,42.0,4.0,-100.00,ESE,113,5.0,10.0,20,0.00,,,0.00,364.000000,,2013-03-07 16:52:00,
2013-03-07 10:22:00,47.0,0.0,-100.00,WSW,252,5.0,16.0,14,0.00,,,0.00,545.000000,,2013-03-07 17:22:00,
2013-03-07 10:33:00,47.0,0.0,-100.00,WSW,252,5.0,16.0,14,0.00,,,0.00,545.000000,,2013-03-07 17:33:00,
2013-03-07 10:43:00,47.0,0.0,-100.00,WSW,252,5.0,16.0,14,0.00,,,0.00,545.000000,,2013-03-07 17:43:00,
2013-03-07 10:53:00,47.0,0.0,-100.00,WSW,252,5.0,16.0,14,0.00,,,0.00,545.000000,,2013-03-07 17:53:00,
2013-03-07 11:22:00,47.0,2.0,-100.00,WNW,282,7.0,17.0,15,0.00,,,0.00,683.000000,,2013-03-07 18:22:00,
2013-03-07 11:32:00,47.0,2.0,-100.00,WNW,282,7.0,17.0,15,0.00,,,0.00,683.000000,,2013-03-07 18:32:00,
2013-03-07 11:42:00,47.0,2.0,-100.00,WNW,282,7.0,17.0,15,0.00,,,0.00,683.000000,,2013-03-07 18:42:00,
2013-03-07 11:52:00,47.0,2.0,-100.00,WNW,282,7.0,17.0,15,0.00,,,0.00,683.000000,,2013-03-07 18:52:00,
2013-03-07 12:23:00,51.0,0.0,-100.00,South,181,5.0,20.0,12,0.00,,,0.00,779.000000,,2013-03-07 19:23:00,
2013-03-07 12:35:00,51.0,0.0,-100.00,South,181,5.0,20.0,12,0.00,,,0.00,779.000000,,2013-03-07 19:35:00,
2013-03-07 12:43:00,51.0,0.0,-100.00,South,181,5.0,20.0,12,0.00,,,0.00,779.000000,,2013-03-07 19:43:00,
2013-03-07 12:52:00,51.0,0.0,-100.00,South,181,5.0,20.0,12,0.00,,,0.00,779.000000,,2013-03-07 19:52:00,
2013-03-07 13:22:00,51.0,-2.0,-100.00,South,175,8.0,16.0,11,0.00,,,0.00,806.000000,,2013-03-07 20:22:00,
2013-03-07 13:33:00,51.0,-2.0,-100.00,South,175,8.0,16.0,11,0.00,,,0.00,806.000000,,2013-03-07 20:33:00,
2013-03-07 13:42:00,51.0,-2.0,-100.00,South,175,8.0,16.0,11,0.00,,,0.00,806.000000,,2013-03-07 20:42:00,
2013-03-07 13:53:00,51.0,-2.0,-100.00,South,175,8.0,16.0,11,0.00,,,0.00,806.000000,,2013-03-07 20:53:00,
2013-03-07 15:22:00,51.0,-4.0,-100.00,SSW,200,7.0,16.0,10,-99.99,,,0.00,657.000000,,2013-03-07 22:22:00,
2013-03-07 15:32:00,51.0,-4.0,-100.00,SSW,200,7.0,16.0,10,-99.99,,,0.00,657.000000,,2013-03-07 22:32:00,
2013-03-07 15:42:00,51.0,-4.0,-100.00,SSW,200,7.0,16.0,10,-99.99,,,0.00,657.000000,,2013-03-07 22:42:00,
2013-03-07 15:53:00,51.0,-4.0,-100.00,SSW,200,7.0,16.0,10,-99.99,,,0.00,657.000000,,2013-03-07 22:53:00,
2013-03-07 16:22:00,52.0,-3.0,-100.00,SW,230,5.0,14.0,10,0.00,,,0.00,513.000000,,2013-03-07 23:22:00,
2013-03-07 16:33:00,52.0,-3.0,-100.00,SW,230,5.0,14.0,10,0.00,,,0.00,513.000000,,2013-03-07 23:33:00,
2013-03-07 16:43:00,52.0,-3.0,-100.00,SW,230,5.0,14.0,10,0.00,,,0.00,513.000000,,2013-03-07 23:43:00,
2013-03-07 16:53:00,52.0,-3.0,-100.00,SW,230,5.0,14.0,10,0.00,,,0.00,513.000000,,2013-03-07 23:53:00,
2013-03-07 17:23:00,48.0,-6.0,-100.00,South,176,5.0,11.0,10,0.00,,,0.00,321.000000,,2013-03-08 00:23:00,
2013-03-07 17:43:00,48.0,-6.0,-100.00,South,176,5.0,11.0,10,0.00,,,0.00,321.000000,,2013-03-08 00:43:00,
2013-03-07 17:52:00,48.0,-6.0,-100.00,South,176,5.0,11.0,10,0.00,,,0.00,321.000000,,2013-03-08 00:52:00,
2013-03-07 18:21:00,42.0,-5.0,-100.00,ESE,114,2.0,11.0,13,0.00,,,0.00,102.000000,,2013-03-08 01:21:00,
2013-03-07 18:33:00,42.0,-5.0,-100.00,ESE,114,2.0,11.0,13,0.00,,,0.00,102.000000,,2013-03-08 01:33:00,
2013-03-07 18:42:00,42.0,-5.0,-100.00,ESE,114,2.0,11.0,13,0.00,,,0.00,102.000000,,2013-03-08 01:42:00,
2013-03-07 18:52:00,42.0,-5.0,-100.00,ESE,114,2.0,11.0,13,0.00,,,0.00,102.000000,,2013-03-08 01:52:00,
2013-03-07 19:22:00,32.0,9.0,-100.00,ESE,112,4.0,6.0,38,0.00,,,0.00,1.000000,,2013-03-08 02:22:00,
2013-03-07 19:32:00,32.0,9.0,-100.00,ESE,112,4.0,6.0,38,0.00,,,0.00,1.000000,,2013-03-08 02:32:00,
2013-03-07 19:42:00,32.0,9.0,-100.00,ESE,112,4.0,6.0,38,0.00,,,0.00,1.000000,,2013-03-08 02:42:00,
2013-03-07 19:52:00,32.0,9.0,-100.00,ESE,112,4.0,6.0,38,0.00,,,0.00,1.000000,,2013-03-08 02:52:00,
2013-03-07 20:22:00,27.0,9.0,-100.00,ESE,119,2.0,6.0,45,0.00,,,0.00,0.000000,,2013-03-08 03:22:00,
2013-03-07 20:32:00,27.0,9.0,-100.00,ESE,119,2.0,6.0,45,0.00,,,0.00,0.000000,,2013-03-08 03:32:00,
2013-03-07 20:42:00,27.0,9.0,-100.00,ESE,119,2.0,6.0,45,0.00,,,0.00,0.000000,,2013-03-08 03:42:00,
2013-03-07 20:52:00,27.0,9.0,-100.00,ESE,119,2.0,6.0,45,0.00,,,0.00,0.000000,,2013-03-08 03:52:00,
2013-03-07 21:22:00,26.0,8.0,-100.00,East,89,2.0,5.0,46,0.00,,,0.00,0.000000,,2013-03-08 04:22:00,
2013-03-07 21:32:00,26.0,8.0,-100.00,East,89,2.0,5.0,46,0.00,,,0.00,0.000000,,2013-03-08 04:32:00,
2013-03-07 21:42:00,26.0,8.0,-100.00,East,89,2.0,5.0,46,0.00,,,0.00,0.000000,,2013-03-08 04:42:00,
2013-03-07 21:52:00,26.0,8.0,-100.00,East,89,2.0,5.0,46,0.00,,,0.00,0.000000,,2013-03-08 04:52:00,
2013-03-07 22:22:00,24.0,6.0,-100.00,NW,321,1.0,5.0,46,0.00,,,0.00,0.000000,,2013-03-08 05:22:00,
2013-03-07 22:32:00,24.0,6.0,-100.00,NW,321,1.0,5.0,46,0.00,,,0.00,0.000000,,2013-03-08 05:32:00,
2013-03-07 22:42:00,24.0,6.0,-100.00,NW,321,1.0,5.0,46,0.00,,,0.00,0.000000,,2013-03-08 05:42:00,
2013-03-07 22:52:00,24.0,6.0,-100.00,NW,321,1.0,5.0,46,0.00,,,0.00,0.000000,,2013-03-08 05:52:00,
2013-03-07 23:22:00,23.0,5.0,-100.00,ESE,110,4.0,6.0,45,0.00,,,-99.99,0.000000,,2013-03-08 06:22:00,
2013-03-07 23:32:00,23.0,5.0,-100.00,ESE,110,4.0,6.0,45,0.00,,,-99.99,0.000000,,2013-03-08 06:32:00,
2013-03-07 23:42:00,23.0,5.0,-100.00,ESE,110,4.0,6.0,45,0.00,,,-99.99,0.000000,,2013-03-08 06:42:00,
2013-03-07 23:51:00,23.0,5.0,-100.00,ESE,110,4.0,6.0,45,0.00,,,-99.99,0.000000,,2013-03-08 06:51:00,